Time;durP1;ratioP1;P1;durP2;ratioP2;P2;SDS_P1;SDS_P2;PMS_P1;PMS_P2;Temp;Humidity;BMP_temperature;BMP_pressure;BME280_temperature;BME280_humidity;BME280_pressure;Samples;Min_cycle;Max_cycle;Signal;HPM_P1;HPM_P2
2023/10/26 01:14:38;;;;;;;27.10;24.80;;;;;;;-141.22;100.00;65034.22;5025597;28;20427;-43
2023/10/26 01:17:05;;;;;;;26.43;24.10;;;;;;;-141.22;100.00;65034.22;5028944;28;20527;-39
2023/10/26 01:19:44;;;;;;;26.10;23.90;;;;;;;-141.22;100.00;65034.22;5005499;28;20489;-39
2023/10/26 01:22:13;;;;;;;25.50;23.13;;;;;;;-141.22;100.00;65034.22;5028171;28;20436;-40
2023/10/26 01:24:41;;;;;;;26.20;24.00;;;;;;;-141.22;100.00;65034.22;5028167;28;21019;-39
2023/10/26 01:27:09;;;;;;;26.50;23.90;;;;;;;-141.22;100.00;65034.22;5027907;28;20456;-39
2023/10/26 01:29:36;;;;;;;25.40;23.13;;;;;;;-141.22;100.00;65034.22;5002993;28;20578;-40
2023/10/26 01:32:05;;;;;;;26.53;21.90;;;;;;;-141.22;100.00;65034.22;5028245;28;20518;-39
2023/10/26 01:34:33;;;;;;;22.20;20.30;;;;;;;-141.22;100.00;65034.22;5027746;28;20514;-39
2023/10/26 01:37:03;;;;;;;25.13;22.83;;;;;;;-141.22;100.00;65034.22;5025456;28;20458;-39
2023/10/26 01:39:32;;;;;;;25.10;23.20;;;;;;;-141.22;100.00;65034.22;5005921;28;20459;-40
2023/10/26 01:42:00;;;;;;;23.30;21.27;;;;;;;-141.22;100.00;65034.22;5028138;28;20808;-39
2023/10/26 01:44:28;;;;;;;22.80;21.00;;;;;;;-141.22;100.00;65034.22;5027917;28;20432;-39
2023/10/26 01:46:56;;;;;;;25.00;22.93;;;;;;;-141.22;100.00;65034.22;5027149;28;20492;-40
2023/10/26 01:49:24;;;;;;;24.67;22.77;;;;;;;-141.22;100.00;65034.22;5004024;28;20523;-40
2023/10/26 01:51:52;;;;;;;23.73;21.93;;;;;;;-141.22;100.00;65034.22;5031068;28;20941;-39
2023/10/26 01:54:19;;;;;;;22.23;20.53;;;;;;;-141.22;100.00;65034.22;5031595;28;20436;-39
2023/10/26 01:56:49;;;;;;;21.83;20.20;;;;;;;-141.22;100.00;65034.22;5031037;28;20428;-40
2023/10/26 01:59:16;;;;;;;22.30;20.33;;;;;;;-141.22;100.00;65034.22;5019058;28;20432;-39
2023/10/26 02:01:44;;;;;;;22.90;20.90;;;;;;;-141.22;100.00;65034.22;5030364;28;20509;-39
2023/10/26 02:04:12;;;;;;;21.50;19.70;;;;;;;-141.22;100.00;65034.22;5031610;28;20440;-40
2023/10/26 02:06:39;;;;;;;21.10;19.40;;;;;;;-141.22;100.00;65034.22;5030514;28;20440;-40
2023/10/26 02:09:08;;;;;;;23.00;21.10;;;;;;;-141.22;100.00;65034.22;5030864;28;21070;-39
2023/10/26 02:11:35;;;;;;;21.70;20.10;;;;;;;-141.22;100.00;65034.22;5006297;28;20460;-41
2023/10/26 02:14:04;;;;;;;22.73;20.23;;;;;;;-141.22;100.00;65034.22;5030468;28;21046;-39
2023/10/26 02:16:33;;;;;;;22.43;20.73;;;;;;;-141.22;100.00;65034.22;5030891;28;20541;-39
2023/10/26 02:19:01;;;;;;;23.63;21.80;;;;;;;-141.22;100.00;65034.22;5030609;28;20442;-41
2023/10/26 02:21:29;;;;;;;21.53;19.70;;;;;;;-141.22;100.00;65034.22;5017674;28;20479;-40
2023/10/26 02:23:56;;;;;;;23.30;21.40;;;;;;;-141.22;100.00;65034.22;5030838;28;20905;-39
2023/10/26 02:26:24;;;;;;;25.03;22.87;;;;;;;-141.22;100.00;65034.22;5030169;28;20440;-39
2023/10/26 02:28:52;;;;;;;22.27;20.57;;;;;;;-141.22;100.00;65034.22;5030133;28;20495;-41
2023/10/26 02:31:21;;;;;;;23.30;20.10;;;;;;;-141.22;100.00;65034.22;5008711;28;20541;-40
2023/10/26 02:33:49;;;;;;;21.17;19.33;;;;;;;-141.22;100.00;65034.22;5030800;28;20437;-39
2023/10/26 02:36:16;;;;;;;21.30;19.70;;;;;;;-141.22;100.00;65034.22;5030464;28;20442;-42
2023/10/26 02:38:45;;;;;;;20.90;19.10;;;;;;;-141.22;100.00;65034.22;5029981;28;20525;-41
2023/10/26 02:41:12;;;;;;;22.03;20.43;;;;;;;-141.22;100.00;65034.22;5005481;28;20542;-44
2023/10/26 02:43:40;;;;;;;21.57;19.77;;;;;;;-141.22;100.00;65034.22;5030597;28;20436;-40
2023/10/26 02:46:09;;;;;;;22.50;20.73;;;;;;;-141.22;100.00;65034.22;5030277;28;20475;-40
2023/10/26 02:48:38;;;;;;;22.13;20.57;;;;;;;-141.22;100.00;65034.22;5030477;28;20464;-39
2023/10/26 02:51:06;;;;;;;23.40;21.60;;;;;;;-141.22;100.00;65034.22;5019453;28;20848;-39
2023/10/26 02:53:33;;;;;;;25.40;23.30;;;;;;;-141.22;100.00;65034.22;5030725;28;20955;-39
2023/10/26 02:56:01;;;;;;;22.07;20.23;;;;;;;-141.22;100.00;65034.22;5029885;28;20436;-39
2023/10/26 02:58:29;;;;;;;20.90;19.30;;;;;;;-141.22;100.00;65034.22;5030343;28;20480;-42
2023/10/26 03:00:57;;;;;;;20.37;18.97;;;;;;;-141.22;100.00;65034.22;5028693;28;20777;-40
2023/10/26 03:03:25;;;;;;;21.97;20.23;;;;;;;-141.22;100.00;65034.22;5011770;28;20538;-39
2023/10/26 03:05:54;;;;;;;21.50;19.93;;;;;;;-141.22;100.00;65034.22;5029821;28;20828;-39
2023/10/26 03:08:22;;;;;;;21.27;19.43;;;;;;;-141.22;100.00;65034.22;5030101;28;20870;-40
2023/10/26 03:10:50;;;;;;;21.93;20.23;;;;;;;-141.22;100.00;65034.22;5029739;28;20472;-40
2023/10/26 03:13:18;;;;;;;21.90;20.47;;;;;;;-141.22;100.00;65034.22;5014409;28;20476;-40
2023/10/26 03:15:45;;;;;;;21.50;20.00;;;;;;;-141.22;100.00;65034.22;5029653;28;21139;-39
2023/10/26 03:18:14;;;;;;;22.77;21.07;;;;;;;-141.22;100.00;65034.22;5029268;28;20452;-39
2023/10/26 03:20:42;;;;;;;21.60;20.23;;;;;;;-141.22;100.00;65034.22;5030131;28;20529;-39
2023/10/26 03:23:11;;;;;;;21.67;20.27;;;;;;;-141.22;100.00;65034.22;5008096;28;20574;-40
2023/10/26 03:25:39;;;;;;;21.47;20.10;;;;;;;-141.22;100.00;65034.22;5029734;28;20432;-42
2023/10/26 03:28:07;;;;;;;20.30;19.00;;;;;;;-141.22;100.00;65034.22;5030164;28;20466;-40
2023/10/26 03:30:34;;;;;;;21.27;19.67;;;;;;;-141.22;100.00;65034.22;5030976;28;20831;-40
2023/10/26 03:33:02;;;;;;;21.00;19.57;;;;;;;-141.22;100.00;65034.22;5005350;28;20467;-39
2023/10/26 03:35:34;;;;;;;21.60;20.10;;;;;;;-141.22;100.00;65034.22;5026795;28;20441;-40
2023/10/26 03:38:01;;;;;;;21.47;19.87;;;;;;;-141.22;100.00;65034.22;5021622;28;20863;-41
2023/10/26 03:40:30;;;;;;;20.90;19.43;;;;;;;-141.22;100.00;65034.22;5030216;28;20424;-42
2023/10/26 03:42:58;;;;;;;21.93;20.40;;;;;;;-141.22;100.00;65034.22;5023103;28;20424;-39
2023/10/26 03:45:26;;;;;;;21.70;20.20;;;;;;;-141.22;100.00;65034.22;5024262;28;20456;-38
2023/10/26 03:47:54;;;;;;;21.50;19.90;;;;;;;-141.22;100.00;65034.22;5028570;28;20462;-38
2023/10/26 03:50:22;;;;;;;20.47;18.97;;;;;;;-141.22;100.00;65034.22;5029771;28;20468;-39
2023/10/26 03:52:50;;;;;;;21.00;19.50;;;;;;;-141.22;100.00;65034.22;5029941;28;20436;-40
2023/10/26 03:55:18;;;;;;;20.10;18.70;;;;;;;-141.22;100.00;65034.22;5007068;28;20470;-41
2023/10/26 03:57:48;;;;;;;20.47;18.87;;;;;;;-141.22;100.00;65034.22;5029842;28;20603;-38
2023/10/26 04:00:16;;;;;;;20.70;19.30;;;;;;;-141.22;100.00;65034.22;5029408;28;20519;-39
2023/10/26 04:02:44;;;;;;;18.27;17.00;;;;;;;-141.22;100.00;65034.22;5030474;28;20443;-40
2023/10/26 04:05:12;;;;;;;18.73;17.17;;;;;;;-141.22;100.00;65034.22;5007165;28;20523;-38
2023/10/26 04:07:39;;;;;;;18.83;17.53;;;;;;;-141.22;100.00;65034.22;5029519;28;20817;-38
2023/10/26 04:10:08;;;;;;;16.20;15.10;;;;;;;-141.22;100.00;65034.22;5029745;28;20475;-40
2023/10/26 04:12:36;;;;;;;15.80;14.63;;;;;;;-141.22;100.00;65034.22;5029522;28;20440;-40
2023/10/26 04:15:07;;;;;;;15.30;14.30;;;;;;;-141.22;100.00;65034.22;4998078;28;20468;-39
2023/10/26 04:17:34;;;;;;;14.93;14.03;;;;;;;-141.22;100.00;65034.22;5029395;28;20896;-39
2023/10/26 04:20:02;;;;;;;15.30;14.20;;;;;;;-141.22;100.00;65034.22;5029445;28;20843;-39
2023/10/26 04:22:30;;;;;;;13.87;13.17;;;;;;;-141.22;100.00;65034.22;5029822;28;20438;-40
2023/10/26 04:24:58;;;;;;;13.77;13.10;;;;;;;-141.22;100.00;65034.22;5029241;28;20438;-42
2023/10/26 04:27:25;;;;;;;12.70;12.13;;;;;;;-141.22;100.00;65034.22;5003627;28;20509;-38
2023/10/26 04:29:53;;;;;;;12.73;11.93;;;;;;;-141.22;100.00;65034.22;5029287;28;20497;-41
2023/10/26 04:32:22;;;;;;;13.47;12.77;;;;;;;-141.22;100.00;65034.22;5029820;28;20442;-38
2023/10/26 04:34:50;;;;;;;12.53;12.13;;;;;;;-141.22;100.00;65034.22;5029608;28;20435;-41
2023/10/26 04:37:17;;;;;;;12.40;12.00;;;;;;;-141.22;100.00;65034.22;4999917;28;20486;-39
2023/10/26 04:39:45;;;;;;;12.67;12.07;;;;;;;-141.22;100.00;65034.22;5029665;28;20437;-38
2023/10/26 04:42:13;;;;;;;12.60;12.20;;;;;;;-141.22;100.00;65034.22;5028843;28;20537;-39
2023/10/26 04:44:41;;;;;;;13.33;12.83;;;;;;;-141.22;100.00;65034.22;5028851;28;20444;-39
2023/10/26 04:47:09;;;;;;;13.83;13.20;;;;;;;-141.22;100.00;65034.22;5012736;28;20480;-39
2023/10/26 04:49:38;;;;;;;15.10;14.10;;;;;;;-141.22;100.00;65034.22;5028741;28;20790;-39
2023/10/26 04:52:08;;;;;;;14.10;13.57;;;;;;;-141.22;100.00;65034.22;5028753;28;20499;-39
2023/10/26 04:54:35;;;;;;;14.77;13.70;;;;;;;-141.22;100.00;65034.22;5029148;28;20448;-40
2023/10/26 04:57:04;;;;;;;14.93;13.97;;;;;;;-141.22;100.00;65034.22;5005761;28;20503;-39
2023/10/26 04:59:31;;;;;;;13.63;13.13;;;;;;;-141.22;100.00;65034.22;5028585;28;20440;-39
2023/10/26 05:01:59;;;;;;;13.27;12.70;;;;;;;-141.22;100.00;65034.22;5029101;28;20424;-39
2023/10/26 05:04:27;;;;;;;13.70;13.10;;;;;;;-141.22;100.00;65034.22;5028871;28;20447;-40
2023/10/26 05:06:56;;;;;;;13.10;12.47;;;;;;;-141.22;100.00;65034.22;5011403;28;20459;-39
2023/10/26 05:09:23;;;;;;;12.97;12.47;;;;;;;-141.22;100.00;65034.22;5028357;28;20440;-39
2023/10/26 05:11:51;;;;;;;14.07;13.27;;;;;;;-141.22;100.00;65034.22;5029133;28;20478;-43
2023/10/26 05:14:19;;;;;;;14.10;13.17;;;;;;;-141.22;100.00;65034.22;5028618;28;20468;-40
2023/10/26 05:16:47;;;;;;;13.07;12.10;;;;;;;-141.22;100.00;65034.22;5029117;28;20434;-39
2023/10/26 05:19:14;;;;;;;12.63;12.13;;;;;;;-141.22;100.00;65034.22;5003369;28;20463;-39
2023/10/26 05:21:42;;;;;;;13.33;12.67;;;;;;;-141.22;100.00;65034.22;5028661;28;20420;-39
2023/10/26 05:24:11;;;;;;;14.57;13.57;;;;;;;-141.22;100.00;65034.22;5029047;28;20432;-39
2023/10/26 05:26:39;;;;;;;12.63;12.03;;;;;;;-141.22;100.00;65034.22;5032816;28;20432;-40
2023/10/26 05:29:06;;;;;;;13.23;12.63;;;;;;;-141.22;100.00;65034.22;5009800;28;20459;-39
2023/10/26 05:31:34;;;;;;;13.07;12.57;;;;;;;-141.22;100.00;65034.22;5032374;28;20475;-39
2023/10/26 05:34:02;;;;;;;12.83;12.17;;;;;;;-141.22;100.00;65034.22;5032389;28;20436;-39
2023/10/26 05:36:30;;;;;;;12.20;11.80;;;;;;;-141.22;100.00;65034.22;5027875;28;20428;-41
2023/10/26 05:38:57;;;;;;;10.97;10.63;;;;;;;-141.22;100.00;65034.22;5019818;28;20470;-38
2023/10/26 05:41:26;;;;;;;13.10;12.60;;;;;;;-141.22;100.00;65034.22;5032584;28;20438;-38
2023/10/26 05:43:54;;;;;;;13.57;13.17;;;;;;;-141.22;100.00;65034.22;5032181;28;20915;-39
2023/10/26 05:46:22;;;;;;;12.43;11.83;;;;;;;-141.22;100.00;65034.22;5032523;28;20458;-39
2023/10/26 05:48:50;;;;;;;12.67;12.27;;;;;;;-141.22;100.00;65034.22;5013588;28;20476;-38
2023/10/26 05:51:17;;;;;;;12.30;11.90;;;;;;;-141.22;100.00;65034.22;5032416;28;20566;-38
2023/10/26 05:53:45;;;;;;;13.27;12.57;;;;;;;-141.22;100.00;65034.22;5031676;28;20523;-39
2023/10/26 05:56:13;;;;;;;13.90;13.10;;;;;;;-141.22;100.00;65034.22;5031359;28;20496;-39
2023/10/26 05:58:43;;;;;;;13.30;12.80;;;;;;;-141.22;100.00;65034.22;5031549;28;20452;-39
2023/10/26 06:01:11;;;;;;;14.20;13.60;;;;;;;-141.22;100.00;65034.22;5001285;28;21002;-40
2023/10/26 06:03:38;;;;;;;14.40;13.80;;;;;;;-141.22;100.00;65034.22;5031352;28;20890;-39
2023/10/26 06:06:07;;;;;;;14.77;13.97;;;;;;;-141.22;100.00;65034.22;5031646;28;20808;-41
2023/10/26 06:08:34;;;;;;;15.33;14.63;;;;;;;-141.22;100.00;65034.22;5031944;28;20887;-41
2023/10/26 06:11:02;;;;;;;15.80;15.30;;;;;;;-141.22;100.00;65034.22;5009233;28;20994;-39
2023/10/26 06:13:30;;;;;;;16.03;15.33;;;;;;;-141.22;100.00;65034.22;5031332;28;20494;-39
2023/10/26 06:16:00;;;;;;;15.07;14.57;;;;;;;-141.22;100.00;65034.22;5030502;28;20502;-42
2023/10/26 06:18:27;;;;;;;13.70;13.20;;;;;;;-141.22;100.00;65034.22;5031485;28;20507;-39
2023/10/26 06:20:58;;;;;;;16.03;15.10;;;;;;;-141.22;100.00;65034.22;5009198;28;20922;-42
2023/10/26 06:23:28;;;;;;;14.20;13.70;;;;;;;-141.22;100.00;65034.22;5031212;28;20436;-39
2023/10/26 06:25:59;;;;;;;14.30;13.70;;;;;;;-141.22;100.00;65034.22;5031361;28;20432;-39
2023/10/26 06:28:27;;;;;;;14.73;14.13;;;;;;;-141.22;100.00;65034.22;5031549;28;20456;-40
2023/10/26 06:30:55;;;;;;;14.37;13.77;;;;;;;-141.22;100.00;65034.22;5006011;28;20475;-42
2023/10/26 06:33:25;;;;;;;14.97;14.27;;;;;;;-141.22;100.00;65034.22;5031603;28;20532;-39
2023/10/26 06:35:53;;;;;;;14.30;13.70;;;;;;;-141.22;100.00;65034.22;5029954;28;20429;-42
2023/10/26 06:38:20;;;;;;;14.67;13.77;;;;;;;-141.22;100.00;65034.22;5031523;28;20530;-40
2023/10/26 06:40:48;;;;;;;13.40;12.90;;;;;;;-141.22;100.00;65034.22;5008317;28;20837;-40
2023/10/26 06:43:16;;;;;;;14.83;13.63;;;;;;;-141.22;100.00;65034.22;5031356;28;20467;-41
2023/10/26 06:45:44;;;;;;;14.17;13.23;;;;;;;-141.22;100.00;65034.22;5031276;28;20428;-39
2023/10/26 06:48:12;;;;;;;14.23;13.37;;;;;;;-141.22;100.00;65034.22;5025647;28;20464;-39
2023/10/26 06:50:44;;;;;;;13.73;13.10;;;;;;;-141.22;100.00;65034.22;5031667;28;20575;-39
2023/10/26 06:53:13;;;;;;;15.40;14.40;;;;;;;-141.22;100.00;65034.22;5008704;28;21014;-39
2023/10/26 06:55:41;;;;;;;16.13;14.73;;;;;;;-141.22;100.00;65034.22;5030686;28;20526;-39
2023/10/26 06:58:09;;;;;;;15.40;14.40;;;;;;;-141.22;100.00;65034.22;5030422;28;20463;-39
2023/10/26 07:00:36;;;;;;;15.77;14.97;;;;;;;-141.22;100.00;65034.22;5031104;28;20432;-39
2023/10/26 07:03:05;;;;;;;14.90;14.00;;;;;;;-141.22;100.00;65034.22;5012526;28;20476;-39
2023/10/26 07:05:34;;;;;;;14.80;14.10;;;;;;;-141.22;100.00;65034.22;5030899;28;20531;-40
2023/10/26 07:08:03;;;;;;;15.10;13.80;;;;;;;-141.22;100.00;65034.22;5031245;28;20496;-39
2023/10/26 07:10:31;;;;;;;14.50;13.87;;;;;;;-141.22;100.00;65034.22;5031243;28;20889;-39
2023/10/26 07:12:59;;;;;;;14.07;13.10;;;;;;;-141.22;100.00;65034.22;5008026;28;20918;-39
2023/10/26 07:15:27;;;;;;;13.27;12.70;;;;;;;-141.22;100.00;65034.22;5030829;28;20931;-39
2023/10/26 07:17:55;;;;;;;13.17;12.57;;;;;;;-141.22;100.00;65034.22;5030289;28;20554;-40
2023/10/26 07:20:23;;;;;;;13.20;12.37;;;;;;;-141.22;100.00;65034.22;5030575;28;20424;-39
2023/10/26 07:22:52;;;;;;;12.00;11.43;;;;;;;-141.22;100.00;65034.22;5005369;28;20466;-43
2023/10/26 07:25:21;;;;;;;11.80;11.40;;;;;;;-141.22;100.00;65034.22;5030893;28;20428;-41
2023/10/26 07:27:49;;;;;;;12.50;11.80;;;;;;;-141.22;100.00;65034.22;5030328;28;20543;-39
2023/10/26 07:30:17;;;;;;;13.60;12.73;;;;;;;-141.22;100.00;65034.22;5030341;28;20938;-39
2023/10/26 07:32:45;;;;;;;13.07;12.27;;;;;;;-141.22;100.00;65034.22;5008085;28;20494;-39
2023/10/26 07:35:14;;;;;;;12.90;12.50;;;;;;;-141.22;100.00;65034.22;5030309;28;20503;-42
2023/10/26 07:37:42;;;;;;;12.87;12.17;;;;;;;-141.22;100.00;65034.22;5029799;28;20452;-42
2023/10/26 07:40:33;;;;;;;12.70;12.23;;;;;;;-141.22;100.00;65034.22;5030296;28;20452;-42
2023/10/26 07:43:01;;;;;;;13.13;12.57;;;;;;;-141.22;100.00;65034.22;5004464;28;21147;-44
2023/10/26 07:45:29;;;;;;;13.60;13.10;;;;;;;-141.22;100.00;65034.22;5029830;28;20437;-39
2023/10/26 07:47:56;;;;;;;12.77;12.13;;;;;;;-141.22;100.00;65034.22;5028351;28;20464;-41
2023/10/26 07:50:28;;;;;;;12.93;12.43;;;;;;;-141.22;100.00;65034.22;5029722;28;20519;-47
2023/10/26 07:52:57;;;;;;;12.50;11.90;;;;;;;-141.22;100.00;65034.22;5026010;28;20472;-39
2023/10/26 07:55:24;;;;;;;13.60;12.67;;;;;;;-141.22;100.00;65034.22;5025658;28;20532;-40
2023/10/26 07:57:54;;;;;;;12.73;12.03;;;;;;;-141.22;100.00;65034.22;5029412;28;20474;-39
2023/10/26 08:00:21;;;;;;;13.60;12.50;;;;;;;-141.22;100.00;65034.22;5029879;28;20436;-41
2023/10/26 08:02:49;;;;;;;13.23;12.63;;;;;;;-141.22;100.00;65034.22;5030331;28;20495;-39
2023/10/26 08:05:17;;;;;;;13.00;12.30;;;;;;;-141.22;100.00;65034.22;5004084;28;20457;-42
2023/10/26 08:07:45;;;;;;;12.80;12.10;;;;;;;-141.22;100.00;65034.22;5029935;28;20471;-40
2023/10/26 08:10:13;;;;;;;13.10;12.60;;;;;;;-141.22;100.00;65034.22;5030416;28;20435;-39
2023/10/26 08:12:41;;;;;;;13.60;12.80;;;;;;;-141.22;100.00;65034.22;5029506;28;20482;-42
2023/10/26 08:15:10;;;;;;;14.53;13.20;;;;;;;-141.22;100.00;65034.22;5004311;28;21158;-41
2023/10/26 08:17:58;;;;;;;13.50;12.77;;;;;;;-141.22;100.00;65034.22;5029698;28;20459;-40
2023/10/26 08:20:26;;;;;;;12.83;12.43;;;;;;;-141.22;100.00;65034.22;5029508;28;20939;-40
2023/10/26 08:22:54;;;;;;;12.93;12.20;;;;;;;-141.22;100.00;65034.22;5029726;28;20471;-39
2023/10/26 08:25:21;;;;;;;12.40;11.80;;;;;;;-141.22;100.00;65034.22;5005156;28;20510;-41
2023/10/26 08:27:52;;;;;;;11.10;10.67;;;;;;;-141.22;100.00;65034.22;5029411;28;20460;-39
2023/10/26 08:30:22;;;;;;;12.27;11.57;;;;;;;-141.22;100.00;65034.22;5029553;28;20482;-39
2023/10/26 08:32:53;;;;;;;11.83;11.00;;;;;;;-141.22;100.00;65034.22;5028562;28;20589;-39
2023/10/26 08:35:22;;;;;;;13.00;11.93;;;;;;;-141.22;100.00;65034.22;5003854;28;20464;-41
2023/10/26 08:37:50;;;;;;;12.63;11.70;;;;;;;-141.22;100.00;65034.22;5028989;28;21073;-39
2023/10/26 08:40:18;;;;;;;12.63;11.87;;;;;;;-141.22;100.00;65034.22;5022503;28;20490;-40
2023/10/26 08:42:46;;;;;;;13.17;12.57;;;;;;;-141.22;100.00;65034.22;5029910;28;20486;-40
2023/10/26 08:45:23;;;;;;;12.67;11.97;;;;;;;-141.22;100.00;65034.22;5028619;28;20511;-44
2023/10/26 08:47:52;;;;;;;11.70;10.90;;;;;;;-141.22;100.00;65034.22;5006539;28;20566;-42
2023/10/26 08:50:21;;;;;;;11.67;11.27;;;;;;;-141.22;100.00;65034.22;5021808;28;20918;-39
2023/10/26 08:52:51;;;;;;;11.80;11.30;;;;;;;-141.22;100.00;65034.22;5029604;28;20839;-40
2023/10/26 08:55:18;;;;;;;11.90;11.10;;;;;;;-141.22;100.00;65034.22;5029234;28;20820;-39
2023/10/26 08:57:47;;;;;;;11.40;11.00;;;;;;;-141.22;100.00;65034.22;5004424;28;20472;-42
2023/10/26 09:00:16;;;;;;;12.40;11.70;;;;;;;-141.22;100.00;65034.22;5032154;28;20443;-40
2023/10/26 09:02:45;;;;;;;12.00;11.50;;;;;;;-141.22;100.00;65034.22;5033670;28;20428;-42
2023/10/26 09:05:15;;;;;;;11.50;11.03;;;;;;;-141.22;100.00;65034.22;5034120;28;20436;-40
2023/10/26 09:07:43;;;;;;;11.30;10.90;;;;;;;-141.22;100.00;65034.22;5010396;28;20488;-39
2023/10/26 09:10:11;;;;;;;11.80;11.30;;;;;;;-141.22;100.00;65034.22;5032616;28;21228;-40
2023/10/26 09:12:38;;;;;;;11.70;11.07;;;;;;;-141.22;100.00;65034.22;5033425;28;20490;-41
2023/10/26 09:15:08;;;;;;;11.70;11.30;;;;;;;-141.22;100.00;65034.22;5032632;28;20520;-40
2023/10/26 09:17:36;;;;;;;11.63;11.23;;;;;;;-141.22;100.00;65034.22;5032726;28;20458;-39
2023/10/26 09:20:17;;;;;;;11.87;11.33;;;;;;;-141.22;100.00;65034.22;5007727;28;20541;-42
2023/10/26 09:22:45;;;;;;;13.13;12.43;;;;;;;-141.22;100.00;65034.22;5033046;28;20438;-39
2023/10/26 09:25:14;;;;;;;10.70;10.20;;;;;;;-141.22;100.00;65034.22;5032738;28;20436;-39
2023/10/26 09:27:43;;;;;;;11.87;11.40;;;;;;;-141.22;100.00;65034.22;5032847;28;20479;-39
2023/10/26 09:30:25;;;;;;;12.67;12.03;;;;;;;-141.22;100.00;65034.22;5017589;28;20645;-41
2023/10/26 09:32:53;;;;;;;11.70;11.20;;;;;;;-141.22;100.00;65034.22;5032450;28;20990;-40
2023/10/26 09:35:30;;;;;;;12.23;11.57;;;;;;;-141.22;100.00;65034.22;5031425;28;20927;-39
2023/10/26 09:37:58;;;;;;;11.20;10.80;;;;;;;-141.22;100.00;65034.22;5029446;28;20464;-40
2023/10/26 09:40:28;;;;;;;11.83;11.43;;;;;;;-141.22;100.00;65034.22;5007397;28;20460;-39
2023/10/26 09:42:56;;;;;;;12.33;11.83;;;;;;;-141.22;100.00;65034.22;5031696;28;20432;-39
2023/10/26 09:45:24;;;;;;;11.73;11.43;;;;;;;-141.22;100.00;65034.22;5032535;28;20428;-38
2023/10/26 09:47:52;;;;;;;11.70;11.30;;;;;;;-141.22;100.00;65034.22;5032405;28;20934;-40
2023/10/26 09:50:20;;;;;;;12.83;12.30;;;;;;;-141.22;100.00;65034.22;5007493;28;20470;-39
2023/10/26 09:52:49;;;;;;;13.13;12.43;;;;;;;-141.22;100.00;65034.22;5032801;28;20432;-41
2023/10/26 09:55:18;;;;;;;14.97;14.33;;;;;;;-141.22;100.00;65034.22;5032436;28;20425;-40
2023/10/26 09:57:51;;;;;;;15.23;14.63;;;;;;;-141.22;100.00;65034.22;5031794;28;20487;-39
2023/10/26 10:00:19;;;;;;;16.40;15.67;;;;;;;-141.22;100.00;65034.22;5007088;28;20471;-39
2023/10/26 10:03:11;;;;;;;17.10;15.90;;;;;;;-141.22;100.00;65034.22;5032174;28;20436;-40
2023/10/26 10:05:40;;;;;;;16.60;16.00;;;;;;;-141.22;100.00;65034.22;5032001;28;20443;-44
2023/10/26 10:08:09;;;;;;;16.50;15.60;;;;;;;-141.22;100.00;65034.22;5031744;28;20518;-42
2023/10/26 10:10:58;;;;;;;15.77;15.07;;;;;;;-141.22;100.00;65034.22;5009082;28;20452;-39
2023/10/26 10:13:38;;;;;;;16.77;16.07;;;;;;;-141.22;100.00;65034.22;5025009;28;20983;-39
2023/10/26 10:16:05;;;;;;;16.60;15.90;;;;;;;-141.22;100.00;65034.22;5031252;28;21015;-39
2023/10/26 10:18:33;;;;;;;17.00;16.10;;;;;;;-141.22;100.00;65034.22;5031764;28;20452;-38
2023/10/26 10:21:34;;;;;;;15.30;14.60;;;;;;;-141.22;100.00;65034.22;5015043;28;20495;-38
2023/10/26 10:24:04;;;;;;;15.83;15.10;;;;;;;-141.22;100.00;65034.22;5032508;28;21011;-39
2023/10/26 10:27:10;;;;;;;15.97;15.30;;;;;;;-141.22;100.00;65034.22;5032165;28;20464;-41
2023/10/26 10:29:40;;;;;;;17.67;16.00;;;;;;;-141.22;100.00;65034.22;5009085;28;20795;-39
2023/10/26 10:32:10;;;;;;;15.90;14.90;;;;;;;-141.22;100.00;65034.22;5032180;28;20433;-38
2023/10/26 10:34:45;;;;;;;15.83;15.10;;;;;;;-141.22;100.00;65034.22;5032136;28;20472;-38
2023/10/26 10:37:17;;;;;;;16.30;15.30;;;;;;;-141.22;100.00;65034.22;5032087;28;20444;-40
2023/10/26 10:40:12;;;;;;;15.70;15.00;;;;;;;-141.22;100.00;65034.22;5007135;28;20475;-39
2023/10/26 10:42:41;;;;;;;16.90;15.20;;;;;;;-141.22;100.00;65034.22;5032104;28;20439;-39
2023/10/26 10:45:13;;;;;;;14.37;13.67;;;;;;;-141.22;100.00;65034.22;5031646;28;20467;-39
2023/10/26 10:47:44;;;;;;;15.17;14.00;;;;;;;-141.22;100.00;65034.22;5031862;28;20542;-39
2023/10/26 10:50:17;;;;;;;14.03;13.53;;;;;;;-141.22;100.00;65034.22;5009366;28;20471;-39
2023/10/26 10:52:45;;;;;;;14.10;13.50;;;;;;;-141.22;100.00;65034.22;5031660;28;20433;-39
2023/10/26 10:55:20;;;;;;;13.97;13.10;;;;;;;-141.22;100.00;65034.22;5032088;28;20472;-40
2023/10/26 10:57:56;;;;;;;13.80;13.00;;;;;;;-141.22;100.00;65034.22;5032554;28;20455;-39
2023/10/26 11:00:24;;;;;;;13.50;13.00;;;;;;;-141.22;100.00;65034.22;5007851;28;20518;-41
2023/10/26 11:02:56;;;;;;;13.50;13.00;;;;;;;-141.22;100.00;65034.22;5031227;28;20527;-39
2023/10/26 11:05:36;;;;;;;12.83;12.33;;;;;;;-141.22;100.00;65034.22;5030664;28;20424;-39
2023/10/26 11:08:05;;;;;;;12.77;12.27;;;;;;;-141.22;100.00;65034.22;5031147;28;20460;-39
2023/10/26 11:10:36;;;;;;;13.30;12.90;;;;;;;-141.22;100.00;65034.22;5027346;28;20437;-39
2023/10/26 11:13:05;;;;;;;13.47;12.53;;;;;;;-141.22;100.00;65034.22;5032959;28;20436;-39
2023/10/26 11:15:35;;;;;;;13.77;12.97;;;;;;;-141.22;100.00;65034.22;5031658;28;20814;-39
2023/10/26 11:18:06;;;;;;;14.30;13.50;;;;;;;-141.22;100.00;65034.22;5031304;28;20491;-42
2023/10/26 11:20:36;;;;;;;14.63;13.87;;;;;;;-141.22;100.00;65034.22;5030340;28;20891;-43
2023/10/26 11:23:05;;;;;;;15.60;14.80;;;;;;;-141.22;100.00;65034.22;5005542;28;20509;-40
2023/10/26 11:25:35;;;;;;;16.50;16.00;;;;;;;-141.22;100.00;65034.22;5030265;28;20445;-39
2023/10/26 11:28:02;;;;;;;16.87;16.03;;;;;;;-141.22;100.00;65034.22;5031139;28;20491;-40
2023/10/26 11:30:31;;;;;;;15.90;15.27;;;;;;;-141.22;100.00;65034.22;5030976;28;20444;-39
2023/10/26 11:33:00;;;;;;;15.20;14.60;;;;;;;-141.22;100.00;65034.22;5009108;28;20479;-40
2023/10/26 11:35:28;;;;;;;17.43;16.43;;;;;;;-141.22;100.00;65034.22;5027076;28;20468;-39
2023/10/26 11:38:05;;;;;;;15.90;15.20;;;;;;;-141.22;100.00;65034.22;5031200;28;20986;-40
2023/10/26 11:40:35;;;;;;;17.00;16.30;;;;;;;-141.22;100.00;65034.22;5023422;28;21160;-40
2023/10/26 11:43:04;;;;;;;16.50;15.80;;;;;;;-141.22;100.00;65034.22;5004526;28;20559;-39
2023/10/26 11:45:47;;;;;;;16.50;15.70;;;;;;;-141.22;100.00;65034.22;5030349;28;20436;-40
2023/10/26 11:48:27;;;;;;;16.23;15.10;;;;;;;-141.22;100.00;65034.22;5030052;28;20460;-39
2023/10/26 11:50:56;;;;;;;16.53;15.67;;;;;;;-141.22;100.00;65034.22;5031471;28;20439;-39
2023/10/26 11:53:26;;;;;;;15.50;14.90;;;;;;;-141.22;100.00;65034.22;5013791;28;20472;-39
2023/10/26 11:55:56;;;;;;;15.80;15.00;;;;;;;-141.22;100.00;65034.22;5031003;28;20468;-41
2023/10/26 11:58:24;;;;;;;14.40;13.80;;;;;;;-141.22;100.00;65034.22;5030138;28;20990;-39
2023/10/26 12:00:53;;;;;;;14.20;13.60;;;;;;;-141.22;100.00;65034.22;5030737;28;20639;-39
2023/10/26 12:03:21;;;;;;;13.40;12.80;;;;;;;-141.22;100.00;65034.22;5013694;28;20525;-40
2023/10/26 12:05:50;;;;;;;13.07;12.47;;;;;;;-141.22;100.00;65034.22;5029907;28;20428;-39
2023/10/26 12:08:19;;;;;;;13.40;12.60;;;;;;;-141.22;100.00;65034.22;5030566;28;20495;-40
2023/10/26 12:10:48;;;;;;;13.77;12.80;;;;;;;-141.22;100.00;65034.22;5030983;28;21014;-39
2023/10/26 12:13:18;;;;;;;12.97;12.27;;;;;;;-141.22;100.00;65034.22;5007547;28;20585;-41
2023/10/26 12:15:46;;;;;;;13.30;12.80;;;;;;;-141.22;100.00;65034.22;5030368;28;20482;-39
2023/10/26 12:18:15;;;;;;;13.53;12.93;;;;;;;-141.22;100.00;65034.22;5030033;28;20495;-39